Decoded Metar for KGTB (FORT DRUM in NY, USA) (IATA:GTB) | Meteo·Mobile Aviation Weather
aviador You're here:

KGTB Decoded Metar

FORT DRUM in NY, USA
Report Time2018-12-17 15:30:00
UTC Time2018-12-17 15:48:00
Flight Rules lifr LIFR
Wind280° at 08 kt
W.Decomp.*RWY 26: 6.7 kt HW 4.4 kt RCW
RWY 33: 6.4 kt HW 4.8 kt LCW
RWY 21: 1.0 kt HW 7.9 kt RCW
W.Rank280° ranks 10
Current wind is above 280° avg. (6.5)
Visibility4828 m
Phenomena:Mist
Clouds:Overcast 002 Hf
Expected CloudBase > 400 ft AGL from Temp-Dew spread
Ceiling200 ft
Temp00°C (ISA -14)
Dew Point-1°C (93% RH)
AAT-5.0°C
QNH1006 hPa
Density Alt-666 ft
Elevation679 ft
Report Wrong Elevation
Raw Report
KGTB 171530Z AUTO 28008KT 3SM BR OVC002 00/M01 A2970 RMK AO2 VIS 2
1/2 RWY21 DZE30 SLP065=

Extra information for KGTB:More info

Metar Taf Metar & Taf Last 4 Metars F.Rules Stats Wind Profile Meteogram Temp Stats Airport Information Weather charts Add Link Nearby VenuesMetar ALERT Operation Metar Decoded Social comments

AIRNAV info for KGTB